createdAt,value
2018-07-26T00:03:31.115Z,56.72
2018-07-26T00:07:34.947Z,56.34
2018-07-26T00:11:38.535Z,56.68
2018-07-26T00:15:42.046Z,56.52
2018-07-26T00:19:45.524Z,56.24
2018-07-26T00:23:49.015Z,57.35
2018-07-26T00:27:52.524Z,57.02
2018-07-26T00:31:56.015Z,56.67
2018-07-26T00:35:59.537Z,56.88
2018-07-26T00:40:03.043Z,57.18
2018-07-26T00:44:08.688Z,57.11
2018-07-26T00:48:13.331Z,57.13
2018-07-26T00:52:17.409Z,57.61
2018-07-26T00:56:21.489Z,57.17
2018-07-26T01:00:25.542Z,57.30
2018-07-26T01:04:29.591Z,57.46
2018-07-26T01:08:33.709Z,57.46
2018-07-26T01:12:37.810Z,57.84
2018-07-26T01:16:41.957Z,57.89
2018-07-26T01:20:52.483Z,58.48
2018-07-26T01:24:56.719Z,58.64
2018-07-26T01:29:00.826Z,59.33
2018-07-26T01:33:04.840Z,58.53
2018-07-26T01:37:08.931Z,58.38
2018-07-26T01:41:12.910Z,59.13
2018-07-26T01:45:17.105Z,58.96
2018-07-26T01:49:21.204Z,59.38
2018-07-26T01:53:27.175Z,59.29
2018-07-26T01:57:31.145Z,59.59
2018-07-26T02:01:35.229Z,59.47
2018-07-26T02:05:39.238Z,59.64
2018-07-26T02:09:43.366Z,59.74
2018-07-26T02:13:47.488Z,59.64
2018-07-26T02:17:51.517Z,59.80
2018-07-26T02:21:55.466Z,59.79
2018-07-26T02:25:59.503Z,60.05
2018-07-26T02:30:03.604Z,60.24
2018-07-26T02:34:07.753Z,59.68
2018-07-26T02:38:12.140Z,59.79
2018-07-26T02:42:16.252Z,60.37
2018-07-26T02:46:20.376Z,60.07
2018-07-26T02:50:24.621Z,60.12
2018-07-26T02:54:28.886Z,60.50
2018-07-26T02:58:32.909Z,59.98
2018-07-26T03:02:37.158Z,60.10
2018-07-26T03:06:41.305Z,60.53
2018-07-26T03:10:45.435Z,61.16
2018-07-26T03:14:49.600Z,61.32
2018-07-26T03:18:53.720Z,61.06
2018-07-26T03:22:57.693Z,60.71
2018-07-26T03:27:01.723Z,60.66
2018-07-26T03:31:06.118Z,60.75
2018-07-26T03:35:10.418Z,61.26
2018-07-26T03:39:14.545Z,61.56
2018-07-26T03:43:24.129Z,61.76
2018-07-26T03:47:28.244Z,61.63
2018-07-26T03:51:32.259Z,61.83
2018-07-26T03:55:36.340Z,61.20
2018-07-26T03:59:40.518Z,61.24
2018-07-26T04:03:45.730Z,62.05
2018-07-26T04:07:49.850Z,62.13
2018-07-26T04:11:53.902Z,61.34
2018-07-26T04:15:58.471Z,61.46
2018-07-26T04:20:03.513Z,62.06
2018-07-26T04:24:07.773Z,61.46
2018-07-26T04:28:11.741Z,62.16
2018-07-26T04:32:15.755Z,61.71
2018-07-26T04:36:19.787Z,61.58
2018-07-26T04:40:23.830Z,62.13
2018-07-26T04:44:27.895Z,61.37
2018-07-26T04:48:31.904Z,61.99
2018-07-26T04:52:36.042Z,61.17
2018-07-26T04:56:40.093Z,62.08
2018-07-26T05:00:44.175Z,61.56
2018-07-26T05:04:48.346Z,61.65
2018-07-26T05:08:53.030Z,62.27
2018-07-26T05:13:00.598Z,62.00
2018-07-26T05:17:04.699Z,61.33
2018-07-26T05:21:08.681Z,61.89
2018-07-26T05:25:12.749Z,61.50
2018-07-26T05:29:16.871Z,60.41
2018-07-26T05:33:20.866Z,61.01
2018-07-26T05:37:26.317Z,60.22
2018-07-26T05:41:30.735Z,60.20
2018-07-26T05:45:35.108Z,59.09
2018-07-26T05:49:39.581Z,59.02
2018-07-26T05:53:46.214Z,58.14
2018-07-26T05:57:52.091Z,56.69
2018-07-26T06:01:56.316Z,57.20
2018-07-26T06:06:00.721Z,57.35
2018-07-26T06:10:05.808Z,55.75
2018-07-26T06:14:10.475Z,55.55
2018-07-26T06:18:14.543Z,55.03
2018-07-26T06:22:19.568Z,55.89
2018-07-26T06:26:24.489Z,55.58
2018-07-26T06:30:28.651Z,54.44
2018-07-26T06:34:32.951Z,54.41
2018-07-26T06:38:37.432Z,54.79
2018-07-26T06:42:41.569Z,55.14
2018-07-26T06:46:45.659Z,54.82
2018-07-26T06:50:49.787Z,53.83
2018-07-26T06:54:54.070Z,54.21
2018-07-26T06:58:58.221Z,53.59
2018-07-26T07:03:02.347Z,53.95
2018-07-26T07:07:06.558Z,54.13
2018-07-26T07:11:10.606Z,54.09
2018-07-26T07:15:14.815Z,54.90
2018-07-26T07:19:18.886Z,53.44
2018-07-26T07:23:24.640Z,54.05
2018-07-26T07:27:29.046Z,54.09
2018-07-26T07:31:33.838Z,54.13
2018-07-26T07:35:38.249Z,52.89
2018-07-26T07:39:42.859Z,53.74
2018-07-26T07:43:47.750Z,53.42
2018-07-26T07:47:53.003Z,53.35
2018-07-26T07:51:57.545Z,53.33
2018-07-26T07:56:02.518Z,52.66
2018-07-26T08:00:19.401Z,53.63
2018-07-26T08:08:38.581Z,52.33
2018-07-26T08:17:38.959Z,51.29
2018-07-26T08:21:51.267Z,52.08
2018-07-26T08:25:54.785Z,51.52
2018-07-26T08:29:58.265Z,51.30
2018-07-26T08:34:01.743Z,51.29
2018-07-26T08:38:05.188Z,50.62
2018-07-26T08:42:08.663Z,51.40
2018-07-26T08:46:12.101Z,50.24
2018-07-26T08:50:15.573Z,51.21
2018-07-26T08:54:19.093Z,50.88
2018-07-26T08:58:22.572Z,49.60
2018-07-26T09:02:25.971Z,48.96
2018-07-26T09:06:29.403Z,50.06
2018-07-26T09:10:32.917Z,49.42
2018-07-26T09:14:36.316Z,48.73
2018-07-26T09:18:39.814Z,48.95
2018-07-26T09:22:43.262Z,48.09
2018-07-26T09:26:46.728Z,48.12
2018-07-26T09:30:50.198Z,48.44
2018-07-26T09:34:53.592Z,47.38
2018-07-26T09:38:57.065Z,48.35
2018-07-26T09:43:00.509Z,47.58
2018-07-26T09:47:04.008Z,46.15
2018-07-26T09:51:07.493Z,45.84
2018-07-26T09:55:10.968Z,47.48
2018-07-26T09:59:14.478Z,46.21
2018-07-26T10:03:17.935Z,46.66
2018-07-26T10:07:21.640Z,46.21
2018-07-26T10:11:26.062Z,46.83
2018-07-26T10:15:29.530Z,47.69
2018-07-26T10:19:32.973Z,45.80
2018-07-26T10:23:37.434Z,46.11
2018-07-26T10:27:40.875Z,47.06
2018-07-26T10:31:44.321Z,46.03
2018-07-26T10:35:47.779Z,47.05
2018-07-26T10:39:51.185Z,45.95
2018-07-26T10:43:54.684Z,45.33
2018-07-26T10:47:58.138Z,45.52
2018-07-26T10:52:01.657Z,45.30
2018-07-26T10:56:05.530Z,46.89
2018-07-26T11:00:10.059Z,44.66
2018-07-26T11:04:13.497Z,46.09
2018-07-26T11:08:16.986Z,44.30
2018-07-26T11:12:20.551Z,44.16
2018-07-26T11:16:23.973Z,42.91
2018-07-26T11:20:27.427Z,44.14
2018-07-26T11:24:30.921Z,43.32
2018-07-26T11:28:34.473Z,43.64
2018-07-26T11:32:38.063Z,42.94
2018-07-26T11:36:41.606Z,42.72
2018-07-26T11:40:45.137Z,43.21
2018-07-26T11:44:48.728Z,41.91
2018-07-26T11:48:52.298Z,41.65
2018-07-26T11:52:55.769Z,42.23
2018-07-26T11:56:59.401Z,40.60
2018-07-26T12:01:03.098Z,41.91
2018-07-26T12:05:06.951Z,41.35
2018-07-26T12:09:11.302Z,42.89
2018-07-26T12:13:14.930Z,40.66
2018-07-26T12:17:18.495Z,39.56
2018-07-26T12:21:22.225Z,39.21
2018-07-26T12:25:25.753Z,39.43
2018-07-26T12:29:29.417Z,39.48
2018-07-26T12:33:33.012Z,39.51
2018-07-26T12:37:36.489Z,40.07
2018-07-26T12:41:40.106Z,39.79
2018-07-26T12:45:43.620Z,38.10
2018-07-26T12:49:47.481Z,39.03
2018-07-26T12:53:51.091Z,38.83
2018-07-26T12:57:55.300Z,37.21
2018-07-26T13:01:58.763Z,38.17
2018-07-26T13:06:02.321Z,39.10
2018-07-26T13:10:06.189Z,40.21
2018-07-26T13:14:10.924Z,41.73
2018-07-26T13:18:14.653Z,42.08
2018-07-26T13:22:18.354Z,40.85
2018-07-26T13:26:22.050Z,40.72
2018-07-26T13:30:25.700Z,41.19
2018-07-26T13:34:29.392Z,40.53
2018-07-26T13:38:33.293Z,39.51
2018-07-26T13:42:36.978Z,40.60
2018-07-26T13:46:40.668Z,39.45
2018-07-26T13:50:44.389Z,38.68
2018-07-26T13:54:48.166Z,39.10
2018-07-26T13:58:51.842Z,39.72
2018-07-26T14:02:55.537Z,38.12
2018-07-26T14:06:59.290Z,38.81
2018-07-26T14:11:03.008Z,39.45
2018-07-26T14:15:07.956Z,40.60
2018-07-26T14:19:12.135Z,40.99
2018-07-26T14:23:21.094Z,44.08
2018-07-26T14:27:24.562Z,50.54
2018-07-26T14:31:28.029Z,52.95
2018-07-26T14:35:31.450Z,52.16
2018-07-26T14:39:34.903Z,53.45
2018-07-26T14:43:38.387Z,52.64
2018-07-26T14:47:41.858Z,51.73
2018-07-26T14:51:45.309Z,53.18
2018-07-26T14:55:48.755Z,52.51
2018-07-26T14:59:52.236Z,50.86
2018-07-26T15:03:55.711Z,51.26
2018-07-26T15:07:59.220Z,50.04
2018-07-26T15:12:02.607Z,51.92
2018-07-26T15:16:06.099Z,50.24
2018-07-26T15:20:09.552Z,50.84
2018-07-26T15:24:13.067Z,48.69
2018-07-26T15:28:16.512Z,50.25
2018-07-26T15:32:20.016Z,49.78
2018-07-26T15:36:23.456Z,49.74
2018-07-26T15:40:26.947Z,46.37
2018-07-26T15:44:30.420Z,47.22
2018-07-26T15:48:33.911Z,47.46
2018-07-26T15:52:37.373Z,48.27
2018-07-26T15:56:40.807Z,47.87
2018-07-26T16:00:44.259Z,47.43
2018-07-26T16:04:47.719Z,51.91
2018-07-26T16:08:51.231Z,52.28
2018-07-26T16:12:54.699Z,52.27
2018-07-26T16:16:58.145Z,54.38
2018-07-26T16:21:01.600Z,55.13
2018-07-26T16:25:06.624Z,55.55
2018-07-26T16:29:10.094Z,55.89
2018-07-26T16:33:13.610Z,55.71
2018-07-26T16:37:17.029Z,55.44
2018-07-26T16:41:20.536Z,55.05
2018-07-26T16:45:24.139Z,54.14
2018-07-26T16:49:27.510Z,55.59
2018-07-26T16:53:31.989Z,55.88
2018-07-26T16:57:35.556Z,56.31
2018-07-26T17:01:39.047Z,56.31
2018-07-26T17:05:42.525Z,55.77
2018-07-26T17:09:46.034Z,56.50
2018-07-26T17:13:49.493Z,56.63
2018-07-26T17:17:52.978Z,57.13
2018-07-26T17:21:56.458Z,57.26
2018-07-26T17:26:00.059Z,56.91
2018-07-26T17:30:03.631Z,56.66
2018-07-26T17:34:07.074Z,56.83
2018-07-26T17:38:10.551Z,57.00
2018-07-26T17:42:14.079Z,58.08
2018-07-26T17:46:17.559Z,58.13
2018-07-26T17:50:21.043Z,57.59
2018-07-26T17:54:24.488Z,58.43
2018-07-26T17:58:27.963Z,58.76
2018-07-26T18:02:31.517Z,59.06
2018-07-26T18:06:34.955Z,58.92
2018-07-26T18:10:38.917Z,59.15
2018-07-26T18:14:42.422Z,58.66
2018-07-26T18:18:45.932Z,58.87
2018-07-26T18:22:49.439Z,59.15
2018-07-26T18:26:52.931Z,59.07
2018-07-26T18:30:56.577Z,58.34
2018-07-26T18:35:00.232Z,58.97
2018-07-26T18:39:04.861Z,58.96
2018-07-26T18:43:08.393Z,58.27
2018-07-26T18:47:11.857Z,58.34
2018-07-26T18:51:15.410Z,59.01
2018-07-26T18:55:19.142Z,59.43
2018-07-26T18:59:22.935Z,58.29
2018-07-26T19:03:26.742Z,58.41
2018-07-26T19:07:30.493Z,58.63
2018-07-26T19:11:35.594Z,59.09
2018-07-26T19:15:39.195Z,59.18
2018-07-26T19:19:42.746Z,59.20
2018-07-26T19:23:46.394Z,59.30
2018-07-26T19:27:50.162Z,59.54
2018-07-26T19:31:53.727Z,59.20
2018-07-26T19:35:57.282Z,58.62
2018-07-26T19:40:00.835Z,58.31
2018-07-26T19:44:04.374Z,59.27
2018-07-26T19:48:08.042Z,59.61
2018-07-26T19:52:11.522Z,58.23
2018-07-26T19:56:15.271Z,58.50
2018-07-26T20:00:18.722Z,58.36
2018-07-26T20:04:22.266Z,58.27
2018-07-26T20:08:25.995Z,59.13
2018-07-26T20:12:29.808Z,58.56
2018-07-26T20:16:33.453Z,59.32
2018-07-26T20:20:37.014Z,58.57
2018-07-26T20:24:40.540Z,58.69
2018-07-26T20:28:44.039Z,58.68
2018-07-26T20:32:47.573Z,59.14
2018-07-26T20:36:51.041Z,59.13
2018-07-26T20:40:54.511Z,59.99
2018-07-26T20:44:57.971Z,59.96
2018-07-26T20:49:01.428Z,59.98
2018-07-26T20:53:04.967Z,60.22
2018-07-26T20:57:08.474Z,59.51
2018-07-26T21:01:11.940Z,60.31
2018-07-26T21:05:15.508Z,59.57
2018-07-26T21:09:18.953Z,59.78
2018-07-26T21:13:22.425Z,60.26
2018-07-26T21:17:26.017Z,60.05
2018-07-26T21:21:29.543Z,60.79
2018-07-26T21:25:33.068Z,60.10
2018-07-26T21:29:36.509Z,60.54
2018-07-26T21:33:39.982Z,60.69
2018-07-26T21:37:43.455Z,61.20
2018-07-26T21:41:46.981Z,60.88
2018-07-26T21:45:50.453Z,60.41
2018-07-26T21:49:53.916Z,60.98
2018-07-26T21:53:57.367Z,60.51
2018-07-26T21:58:00.898Z,60.33
2018-07-26T22:02:05.046Z,59.85
2018-07-26T22:06:08.547Z,60.17
2018-07-26T22:10:12.048Z,59.95
2018-07-26T22:14:15.491Z,60.60
2018-07-26T22:18:19.002Z,60.16
2018-07-26T22:22:22.543Z,60.70
2018-07-26T22:26:26.019Z,60.65
2018-07-26T22:30:29.457Z,60.16
2018-07-26T22:34:32.967Z,61.04
2018-07-26T22:38:43.446Z,60.94
2018-07-26T22:42:48.912Z,60.62
2018-07-26T22:47:10.797Z,60.87
2018-07-26T22:51:20.809Z,60.94
2018-07-26T22:55:27.061Z,60.57
2018-07-26T22:59:32.121Z,61.07
2018-07-26T23:03:39.331Z,60.49
2018-07-26T23:07:44.420Z,61.00
2018-07-26T23:11:49.200Z,61.20
2018-07-26T23:15:53.595Z,60.47
2018-07-26T23:19:59.459Z,60.58
2018-07-26T23:24:05.538Z,60.18
2018-07-26T23:28:12.237Z,61.20
2018-07-26T23:32:17.238Z,60.60
2018-07-26T23:36:21.751Z,61.15
2018-07-26T23:40:30.799Z,60.71
2018-07-26T23:44:34.262Z,61.41
2018-07-26T23:48:37.815Z,61.53
2018-07-26T23:52:41.247Z,61.55
2018-07-26T23:56:44.720Z,60.86
